logo
Search for airport 
image banner adimage banner adimage banner ad
image banner ad

HALL - Lalibella

Located in Lalibella, Ethiopia

ICAO - HALL, IATA - LLI

Data provided by Airmate  

General information

Coordinates: N11°58'26" E38°59'28"
Elevation is 6431 feet MSL.
Magnetic variation is 3° East
View others Airports in Amara

Operational data

Special qualification required
Current time UTC:
Current local time:
Weather at : - ( 0 km )
METAR: KNFE 232031Z AUTO 17009KT 3SM -TSRA BR FEW011 BKN023 BKN050 27/25 A3007 RMK AO2 RAB01 P0071 T02670250
View NOTAMs / SUP AIP / TFR affecting this airport [VIEW]
Communications frequencies: [VIEW]

Runways:

RWY identifierQFULength (ft)Width (ft)SurfaceLDA (ft)
1096°7874148ASP
28276°7874148ASP

Airport contact information

Address: Lalibella Ethiopia

Satellite view of HALL